This is the latest recevied weather packets stored in our database for station/object N4OGP-WX. If no packets are shown the sender has not sent any weather packets the latest 10 day(s).
| Time | Temp. | Humidity | Pressure | Rain* | Wind** | Luminosity | Snow |
|---|---|---|---|---|---|---|---|
| 1777322656 | 27.22° C | 77% | 1014.3 hPa | 0 mm | - | - | - |
| 1777322566 | 26.67° C | 78% | 1014.1 hPa | 0 mm | - | - | - |
| 1777322506 | 26.67° C | 78% | 1014.1 hPa | 0 mm | - | - | - |
| 1777322446 | 26.67° C | 77% | 1014.1 hPa | 0 mm | - | - | - |
| 1777322386 | 26.67° C | 78% | 1014.1 hPa | 0 mm | - | - | - |
| 1777322296 | 26.67° C | 78% | 1014 hPa | 0 mm | - | - | - |
| 1777322206 | 26.67° C | 78% | 1014 hPa | 0 mm | - | - | - |
| 1777322116 | 26.67° C | 78% | 1014 hPa | 0 mm | - | - | - |
| 1777322056 | 23.89° C | 42% | 1020.4 hPa | 0 mm | - | - | - |
| 1777321996 | 23.89° C | 42% | 1020.4 hPa | 0 mm | - | - | - |
| 1777321936 | 23.89° C | 42% | 1020.4 hPa | 0 mm | - | - | - |
| 1777321876 | 27.22° C | 77% | 1014.1 hPa | 0 mm | - | - | - |
| 1777321786 | 27.22° C | 77% | 1014 hPa | 0 mm | - | - | - |
| 1777321726 | 27.22° C | 76% | 1014.1 hPa | 0 mm | - | - | - |
| 1777321636 | 23.89° C | 42% | 1020.4 hPa | 0 mm | - | - | - |
| 1777321576 | 27.22° C | 76% | 1014.2 hPa | 0 mm | - | - | - |
| 1777321516 | 27.22° C | 76% | 1014.1 hPa | 0 mm | - | - | - |
| 1777321456 | 23.89° C | 42% | 1020.4 hPa | 0 mm | - | - | - |
| 1777321366 | 27.22° C | 76% | 1014.3 hPa | 0 mm | - | - | - |
| 1777321276 | 23.89° C | 42% | 1020.4 hPa | 0 mm | - | - | - |
| 1777321216 | 23.89° C | 42% | 1020.4 hPa | 0 mm | - | - | - |
| 1777321156 | 27.22° C | 77% | 1014.3 hPa | 0 mm | - | - | - |
| 1777321096 | 27.22° C | 76% | 1014.3 hPa | 0 mm | - | - | - |
| 1777321036 | 23.89° C | 42% | 1020.4 hPa | 0 mm | - | - | - |
| 1777320946 | 27.22° C | 76% | 1014.4 hPa | 0 mm | - | - | - |
* Rain latest hour (hover to see other rain measurements)
** Current wind speed in m/s (hover to see current wind gust speed)